Time;durP1;ratioP1;P1;durP2;ratioP2;P2;SDS_P1;SDS_P2;PMS_P1;PMS_P2;Temp;Humidity;BMP_temperature;BMP_pressure;BME280_temperature;BME280_humidity;BME280_pressure;Samples;Min_cycle;Max_cycle;Signal;HPM_P1;HPM_P2
2023/04/29 00:00:39;;;;;;;;;;;12.80;99.90;;;;;;5090908;28;19978;-70
2023/04/29 00:03:04;;;;;;;;;;;12.80;99.90;;;;;;5073559;28;19939;-71
2023/04/29 00:05:30;;;;;;;;;;;12.80;99.90;;;;;;5055404;28;19917;-70
2023/04/29 00:07:56;;;;;;;;;;;12.80;99.90;;;;;;5107713;27;20218;-70
2023/04/29 00:10:22;;;;;;;;;;;12.90;99.90;;;;;;5056695;28;19923;-71
2023/04/29 00:12:49;;;;;;;;;;;12.90;99.90;;;;;;5070715;28;19920;-71
2023/04/29 00:15:15;;;;;;;;;;;12.90;99.90;;;;;;5103977;28;19917;-71
2023/04/29 00:17:40;;;;;;;;;;;12.80;99.90;;;;;;5068121;28;19931;-70
2023/04/29 00:20:07;;;;;;;;;;;12.80;99.90;;;;;;5079383;28;19917;-71
2023/04/29 00:22:33;;;;;;;;;;;12.80;99.90;;;;;;5072641;28;20311;-70
2023/04/29 00:24:59;;;;;;;;;;;12.80;99.90;;;;;;5070820;28;19921;-70
2023/04/29 00:27:25;;;;;;;;;;;12.70;99.90;;;;;;5085483;28;19919;-70
2023/04/29 00:29:51;;;;;;;;;;;12.70;99.90;;;;;;5059189;28;19928;-70
2023/04/29 00:32:16;;;;;;;;;;;12.60;99.90;;;;;;5078659;28;19921;-70
2023/04/29 00:34:42;;;;;;;;;;;12.60;99.90;;;;;;5080003;28;20536;-71
2023/04/29 00:37:08;;;;;;;;;;;12.60;99.90;;;;;;5086384;28;19912;-71
2023/04/29 00:39:33;;;;;;;;;;;12.60;99.90;;;;;;5081887;28;20320;-71
2023/04/29 00:41:59;;;;;;;;;;;12.50;99.90;;;;;;5085571;28;19916;-71
2023/04/29 00:44:25;;;;;;;;;;;12.60;99.90;;;;;;5060743;28;20412;-70
2023/04/29 00:46:50;;;;;;;;;;;12.60;99.90;;;;;;5054790;28;19995;-71
2023/04/29 00:49:17;;;;;;;;;;;12.50;99.90;;;;;;5062145;28;19920;-71
2023/04/29 00:51:43;;;;;;;;;;;12.60;99.90;;;;;;5082272;28;19999;-71
2023/04/29 00:54:08;;;;;;;;;;;12.60;99.90;;;;;;5057994;28;20400;-71
2023/04/29 00:56:34;;;;;;;;;;;12.50;99.90;;;;;;5078944;28;19970;-71
2023/04/29 00:59:01;;;;;;;;;;;12.50;99.90;;;;;;5055691;28;19978;-71
2023/04/29 01:01:27;;;;;;;;;;;12.60;99.90;;;;;;5082524;28;19916;-71
2023/04/29 01:03:52;;;;;;;;;;;12.50;99.90;;;;;;5093307;28;20428;-70
2023/04/29 01:06:21;;;;;;;;;;;12.50;99.90;;;;;;5082720;28;19916;-70
2023/04/29 01:09:02;;;;;;;;;;;12.60;99.90;;;;;;5084457;28;19920;-70
2023/04/29 01:11:30;;;;;;;;;;;12.50;99.90;;;;;;5060376;28;19913;-70
2023/04/29 01:14:02;;;;;;;;;;;12.50;99.90;;;;;;5071090;28;19935;-70
2023/04/29 01:16:38;;;;;;;;;;;12.50;99.90;;;;;;5084963;28;19923;-71
2023/04/29 01:19:14;;;;;;;;;;;12.40;99.90;;;;;;5075343;28;19927;-70
2023/04/29 01:21:49;;;;;;;;;;;12.40;99.90;;;;;;5079534;28;19916;-71
2023/04/29 01:24:15;;;;;;;;;;;12.40;99.90;;;;;;5088864;28;19970;-70
2023/04/29 01:26:45;;;;;;;;;;;12.40;99.90;;;;;;5082275;28;19969;-70
2023/04/29 01:29:13;;;;;;;;;;;12.40;99.90;;;;;;5061853;28;20347;-70
2023/04/29 01:31:48;;;;;;;;;;;12.30;99.90;;;;;;5074682;28;19923;-70
2023/04/29 01:34:15;;;;;;;;;;;12.30;99.90;;;;;;5082571;28;19928;-70
2023/04/29 01:37:17;;;;;;;;;;;12.40;99.90;;;;;;5076292;28;19920;-71
2023/04/29 01:39:47;;;;;;;;;;;12.30;99.90;;;;;;5052567;28;19924;-70
2023/04/29 01:42:30;;;;;;;;;;;12.30;99.90;;;;;;5068009;28;19917;-70
2023/04/29 01:44:56;;;;;;;;;;;12.30;99.90;;;;;;5073503;28;19917;-71
2023/04/29 01:47:21;;;;;;;;;;;12.30;99.90;;;;;;5078515;28;19927;-70
2023/04/29 01:49:48;;;;;;;;;;;12.20;99.90;;;;;;5080441;28;19929;-70
2023/04/29 01:52:13;;;;;;;;;;;12.20;99.90;;;;;;5085731;28;19972;-71
2023/04/29 01:54:39;;;;;;;;;;;12.20;99.90;;;;;;5078072;28;20321;-70
2023/04/29 01:57:04;;;;;;;;;;;12.20;99.90;;;;;;5080878;28;19916;-70
2023/04/29 01:59:30;;;;;;;;;;;12.10;99.90;;;;;;5081945;28;19912;-70
2023/04/29 02:01:57;;;;;;;;;;;12.10;99.90;;;;;;5069660;28;19916;-70
2023/04/29 02:04:23;;;;;;;;;;;12.10;99.90;;;;;;5088822;28;19928;-70
2023/04/29 02:06:51;;;;;;;;;;;12.00;99.90;;;;;;5081079;28;19917;-70
2023/04/29 02:09:18;;;;;;;;;;;12.00;99.90;;;;;;5069046;28;20351;-71
2023/04/29 02:11:44;;;;;;;;;;;12.00;99.90;;;;;;5081011;28;19916;-70
2023/04/29 02:14:11;;;;;;;;;;;12.00;99.90;;;;;;5057552;28;19928;-70
2023/04/29 02:16:37;;;;;;;;;;;12.00;99.90;;;;;;5085662;28;19920;-70
2023/04/29 02:19:02;;;;;;;;;;;11.90;99.90;;;;;;5075042;28;20299;-70
2023/04/29 02:21:28;;;;;;;;;;;11.90;99.90;;;;;;5068373;28;19916;-71
2023/04/29 02:23:54;;;;;;;;;;;11.90;99.90;;;;;;5086846;28;19916;-71
2023/04/29 02:26:19;;;;;;;;;;;12.00;99.90;;;;;;5089476;28;19916;-71
2023/04/29 02:28:45;;;;;;;;;;;11.90;99.90;;;;;;5078999;28;19923;-71
2023/04/29 02:31:11;;;;;;;;;;;11.90;99.90;;;;;;5087517;28;19975;-70
2023/04/29 02:33:36;;;;;;;;;;;11.80;99.90;;;;;;5090048;28;19931;-71
2023/04/29 02:36:02;;;;;;;;;;;11.80;99.90;;;;;;5081654;28;19916;-71
2023/04/29 02:38:28;;;;;;;;;;;11.80;99.90;;;;;;5085775;28;20398;-70
2023/04/29 02:40:53;;;;;;;;;;;11.70;99.90;;;;;;5076635;28;19917;-70
2023/04/29 02:43:21;;;;;;;;;;;11.60;99.90;;;;;;5081873;28;19917;-71
2023/04/29 02:45:46;;;;;;;;;;;11.60;99.90;;;;;;5086048;28;20405;-70
2023/04/29 02:48:12;;;;;;;;;;;11.60;99.90;;;;;;5075925;28;19966;-70
2023/04/29 02:50:38;;;;;;;;;;;11.60;99.90;;;;;;5074132;28;19916;-71
2023/04/29 02:53:04;;;;;;;;;;;11.60;99.90;;;;;;5069744;28;20725;-71
2023/04/29 02:55:29;;;;;;;;;;;11.60;99.90;;;;;;5064050;28;20328;-71
2023/04/29 02:57:55;;;;;;;;;;;11.60;99.90;;;;;;5081170;28;19913;-71
2023/04/29 03:00:20;;;;;;;;;;;11.60;99.90;;;;;;5072434;28;19928;-71
2023/04/29 03:02:46;;;;;;;;;;;11.50;99.90;;;;;;5075995;28;20006;-71
2023/04/29 03:05:12;;;;;;;;;;;11.50;99.90;;;;;;5080953;28;19916;-71
2023/04/29 03:07:38;;;;;;;;;;;11.60;99.90;;;;;;5080770;28;19916;-71
2023/04/29 03:10:04;;;;;;;;;;;11.50;99.90;;;;;;5073797;28;19920;-70
2023/04/29 03:12:30;;;;;;;;;;;11.50;99.90;;;;;;5080182;28;20283;-71
2023/04/29 03:14:55;;;;;;;;;;;11.50;99.90;;;;;;5080082;28;19917;-71
2023/04/29 03:17:21;;;;;;;;;;;11.40;99.90;;;;;;5074001;28;19912;-71
2023/04/29 03:19:47;;;;;;;;;;;11.50;99.90;;;;;;5063105;28;20444;-71
2023/04/29 03:22:13;;;;;;;;;;;11.40;99.90;;;;;;5070781;28;19977;-71
2023/04/29 03:24:39;;;;;;;;;;;11.50;99.90;;;;;;5085643;28;19927;-71
2023/04/29 03:27:04;;;;;;;;;;;11.40;99.90;;;;;;5080241;28;20003;-72
2023/04/29 03:29:31;;;;;;;;;;;11.50;99.90;;;;;;5079601;28;20317;-71
2023/04/29 03:31:57;;;;;;;;;;;11.50;99.90;;;;;;5038970;28;19921;-71
2023/04/29 03:34:23;;;;;;;;;;;11.40;99.90;;;;;;5079056;28;20296;-71
2023/04/29 03:36:50;;;;;;;;;;;11.40;99.90;;;;;;5055515;28;19916;-71
2023/04/29 03:39:16;;;;;;;;;;;11.30;99.90;;;;;;5079687;28;19923;-71
2023/04/29 03:41:41;;;;;;;;;;;11.40;99.90;;;;;;5067109;28;19916;-71
2023/04/29 03:44:07;;;;;;;;;;;11.40;99.90;;;;;;5064012;28;19984;-71
2023/04/29 03:46:33;;;;;;;;;;;11.40;99.90;;;;;;5079669;28;19923;-71
2023/04/29 03:48:58;;;;;;;;;;;11.50;99.90;;;;;;5080656;28;20054;-71
2023/04/29 03:51:24;;;;;;;;;;;11.40;99.90;;;;;;5058283;28;19916;-71
2023/04/29 03:53:50;;;;;;;;;;;11.40;99.90;;;;;;5067176;28;19926;-71
2023/04/29 03:56:16;;;;;;;;;;;11.40;99.90;;;;;;5061617;28;19916;-71
2023/04/29 03:58:42;;;;;;;;;;;11.40;99.90;;;;;;5069121;28;19923;-71
2023/04/29 04:01:07;;;;;;;;;;;11.40;99.90;;;;;;5082813;28;19920;-71
2023/04/29 04:03:33;;;;;;;;;;;11.30;99.90;;;;;;5060998;28;19916;-71
2023/04/29 04:05:59;;;;;;;;;;;11.30;99.90;;;;;;5078880;28;19938;-71
2023/04/29 04:08:24;;;;;;;;;;;11.20;99.90;;;;;;5084301;28;19923;-71
2023/04/29 04:10:50;;;;;;;;;;;11.20;99.90;;;;;;5081556;28;19917;-72
2023/04/29 04:13:16;;;;;;;;;;;11.20;99.90;;;;;;5090448;28;19924;-71
2023/04/29 04:15:41;;;;;;;;;;;11.10;99.90;;;;;;5079182;28;19922;-70
2023/04/29 04:18:07;;;;;;;;;;;11.10;99.90;;;;;;5069876;28;19917;-70
2023/04/29 04:20:35;;;;;;;;;;;11.00;99.90;;;;;;5059778;28;19913;-70
2023/04/29 04:23:01;;;;;;;;;;;11.10;99.90;;;;;;5069344;28;19920;-70
2023/04/29 04:25:27;;;;;;;;;;;11.00;99.90;;;;;;5081885;28;19946;-70
2023/04/29 04:27:53;;;;;;;;;;;11.00;99.90;;;;;;5061820;28;20247;-70
2023/04/29 04:30:19;;;;;;;;;;;10.90;99.90;;;;;;5070086;28;20028;-70
2023/04/29 04:32:45;;;;;;;;;;;10.90;99.90;;;;;;5078210;28;19960;-70
2023/04/29 04:35:11;;;;;;;;;;;11.00;99.90;;;;;;5066946;28;19927;-71
2023/04/29 04:37:36;;;;;;;;;;;10.90;99.90;;;;;;5087115;28;19916;-70
2023/04/29 04:40:02;;;;;;;;;;;10.90;99.90;;;;;;5082253;28;19920;-70
2023/04/29 04:42:28;;;;;;;;;;;10.90;99.90;;;;;;5087264;28;19970;-70
2023/04/29 04:44:54;;;;;;;;;;;10.80;99.90;;;;;;5089878;28;19977;-70
2023/04/29 04:47:19;;;;;;;;;;;10.80;99.90;;;;;;5065520;28;20209;-70
2023/04/29 04:49:45;;;;;;;;;;;10.70;99.90;;;;;;5065946;28;20555;-70
2023/04/29 04:52:10;;;;;;;;;;;10.70;99.90;;;;;;5082508;28;20675;-70
2023/04/29 04:54:37;;;;;;;;;;;10.70;99.90;;;;;;5081587;28;19942;-70
2023/04/29 04:57:04;;;;;;;;;;;10.70;99.90;;;;;;5075983;28;19916;-70
2023/04/29 04:59:30;;;;;;;;;;;10.70;99.90;;;;;;5072316;28;19923;-70
2023/04/29 05:01:56;;;;;;;;;;;10.70;99.90;;;;;;5073121;28;19916;-70
2023/04/29 05:04:21;;;;;;;;;;;10.70;99.90;;;;;;5065453;28;20240;-70
2023/04/29 05:06:47;;;;;;;;;;;10.60;99.90;;;;;;5081482;28;19920;-70
2023/04/29 05:09:13;;;;;;;;;;;10.50;99.90;;;;;;5093985;28;19927;-70
2023/04/29 05:11:40;;;;;;;;;;;10.50;99.90;;;;;;5066850;28;19912;-70
2023/04/29 05:14:06;;;;;;;;;;;10.60;99.90;;;;;;5050738;28;19986;-70
2023/04/29 05:16:32;;;;;;;;;;;10.70;99.90;;;;;;5077930;28;20000;-70
2023/04/29 05:18:57;;;;;;;;;;;10.70;99.90;;;;;;5090984;28;19916;-70
2023/04/29 05:21:23;;;;;;;;;;;10.50;99.90;;;;;;5068350;28;19939;-70
2023/04/29 05:23:48;;;;;;;;;;;10.50;99.90;;;;;;5086642;28;19981;-70
2023/04/29 05:26:14;;;;;;;;;;;10.40;99.90;;;;;;5067666;28;19930;-71
2023/04/29 05:28:40;;;;;;;;;;;10.30;99.90;;;;;;5076190;28;20438;-70
2023/04/29 05:31:06;;;;;;;;;;;10.40;99.90;;;;;;5071237;28;19916;-70
2023/04/29 05:33:31;;;;;;;;;;;10.30;99.90;;;;;;5062391;28;19927;-70
2023/04/29 05:35:57;;;;;;;;;;;10.30;99.90;;;;;;5063133;28;19920;-70
2023/04/29 05:38:27;;;;;;;;;;;10.20;99.90;;;;;;5080854;28;19943;-70
2023/04/29 05:40:54;;;;;;;;;;;10.10;99.90;;;;;;5070094;28;19942;-70
2023/04/29 05:43:20;;;;;;;;;;;10.10;99.90;;;;;;5064051;28;19916;-70
2023/04/29 05:45:46;;;;;;;;;;;10.20;99.90;;;;;;5059317;28;19916;-70
2023/04/29 05:48:11;;;;;;;;;;;10.20;99.90;;;;;;5077407;28;19923;-70
2023/04/29 05:50:37;;;;;;;;;;;10.10;99.90;;;;;;5074132;28;19999;-71
2023/04/29 05:53:03;;;;;;;;;;;10.10;99.90;;;;;;5064864;28;20566;-70
2023/04/29 05:55:29;;;;;;;;;;;10.00;99.90;;;;;;5087255;28;20382;-71
2023/04/29 05:57:55;;;;;;;;;;;10.00;99.90;;;;;;5080334;28;20006;-70
2023/04/29 06:00:20;;;;;;;;;;;10.00;99.90;;;;;;5057675;28;19912;-71
2023/04/29 06:02:46;;;;;;;;;;;10.00;99.90;;;;;;5063763;28;19913;-70
2023/04/29 06:05:12;;;;;;;;;;;10.00;99.90;;;;;;5062578;28;20332;-71
2023/04/29 06:07:38;;;;;;;;;;;10.00;99.90;;;;;;5087114;28;19924;-70
2023/04/29 06:10:03;;;;;;;;;;;10.00;99.90;;;;;;5082011;28;19923;-70
2023/04/29 06:12:29;;;;;;;;;;;10.00;99.90;;;;;;5078759;28;19916;-70
2023/04/29 06:14:55;;;;;;;;;;;9.90;99.90;;;;;;5079323;28;19966;-70
2023/04/29 06:17:21;;;;;;;;;;;10.10;99.90;;;;;;5085507;28;19943;-70
2023/04/29 06:19:47;;;;;;;;;;;10.10;99.90;;;;;;5088475;28;19963;-70
2023/04/29 06:22:12;;;;;;;;;;;10.10;99.90;;;;;;5074626;28;19916;-70
2023/04/29 06:24:38;;;;;;;;;;;10.10;99.90;;;;;;5083385;28;19927;-70
2023/04/29 06:27:03;;;;;;;;;;;10.10;99.90;;;;;;5085851;28;19912;-70
2023/04/29 06:29:29;;;;;;;;;;;9.90;99.90;;;;;;5077889;28;19916;-71
2023/04/29 06:31:55;;;;;;;;;;;9.90;99.90;;;;;;5065536;28;19972;-68
2023/04/29 06:34:21;;;;;;;;;;;10.00;99.90;;;;;;5087718;28;19974;-67
2023/04/29 06:36:47;;;;;;;;;;;9.90;99.90;;;;;;5061403;28;19916;-69
2023/04/29 06:39:12;;;;;;;;;;;9.80;99.90;;;;;;5073420;28;20003;-68
2023/04/29 06:41:39;;;;;;;;;;;9.90;99.90;;;;;;5086335;28;19916;-69
2023/04/29 06:44:05;;;;;;;;;;;10.00;99.90;;;;;;5079473;28;19956;-68
2023/04/29 06:46:30;;;;;;;;;;;10.00;99.90;;;;;;5072049;28;19951;-68
2023/04/29 06:48:56;;;;;;;;;;;9.90;99.90;;;;;;5078416;28;19916;-68
2023/04/29 06:51:23;;;;;;;;;;;9.90;99.90;;;;;;5074579;28;19920;-68
2023/04/29 06:53:49;;;;;;;;;;;9.90;99.90;;;;;;5081893;28;20360;-68
2023/04/29 06:56:15;;;;;;;;;;;10.00;99.90;;;;;;5072423;28;19912;-68
2023/04/29 06:58:44;;;;;;;;;;;10.00;99.90;;;;;;5071788;28;19927;-68
2023/04/29 07:01:09;;;;;;;;;;;10.00;99.90;;;;;;5079412;28;19938;-68
2023/04/29 07:03:35;;;;;;;;;;;10.00;99.90;;;;;;5074806;28;19927;-68
2023/04/29 07:06:02;;;;;;;;;;;10.10;99.90;;;;;;5077892;28;19926;-68
2023/04/29 07:08:30;;;;;;;;;;;10.10;99.90;;;;;;5074458;28;20252;-67
2023/04/29 07:10:56;;;;;;;;;;;10.20;99.90;;;;;;5064871;28;19928;-68
2023/04/29 07:13:22;;;;;;;;;;;10.20;99.90;;;;;;5068445;28;19929;-68
2023/04/29 07:15:48;;;;;;;;;;;10.20;99.90;;;;;;5039454;28;19916;-68
2023/04/29 07:18:13;;;;;;;;;;;10.10;99.90;;;;;;5070718;28;19920;-68
2023/04/29 07:20:39;;;;;;;;;;;10.10;99.90;;;;;;5075351;28;19919;-68
2023/04/29 07:23:05;;;;;;;;;;;10.10;99.90;;;;;;5072815;28;19928;-69
2023/04/29 07:25:30;;;;;;;;;;;10.20;99.90;;;;;;5071845;28;19923;-68
2023/04/29 07:27:56;;;;;;;;;;;10.20;99.90;;;;;;5077119;28;19916;-68
2023/04/29 07:30:22;;;;;;;;;;;10.10;99.90;;;;;;5076865;28;19948;-67
2023/04/29 07:32:48;;;;;;;;;;;10.20;99.90;;;;;;5071227;28;20960;-68
2023/04/29 07:35:14;;;;;;;;;;;10.10;99.90;;;;;;5075216;28;19951;-68
2023/04/29 07:37:40;;;;;;;;;;;10.20;99.90;;;;;;5070201;28;20237;-68
2023/04/29 07:40:06;;;;;;;;;;;10.20;99.90;;;;;;5083331;28;19916;-68
2023/04/29 07:42:33;;;;;;;;;;;10.30;99.90;;;;;;5048877;28;19921;-68
2023/04/29 07:44:59;;;;;;;;;;;10.30;99.90;;;;;;5055524;28;19944;-68
2023/04/29 07:47:24;;;;;;;;;;;10.40;99.90;;;;;;5060881;28;19959;-68
2023/04/29 07:49:51;;;;;;;;;;;10.30;99.90;;;;;;5078956;28;19923;-68
2023/04/29 07:52:17;;;;;;;;;;;10.40;99.90;;;;;;5085083;28;19981;-68
2023/04/29 07:54:42;;;;;;;;;;;10.40;99.90;;;;;;5071197;28;20486;-68
2023/04/29 07:57:09;;;;;;;;;;;10.40;99.90;;;;;;5072543;28;20014;-68
2023/04/29 07:59:35;;;;;;;;;;;10.40;99.90;;;;;;5061868;28;20003;-68
2023/04/29 08:02:01;;;;;;;;;;;10.40;99.90;;;;;;5075469;28;19966;-68
2023/04/29 08:04:26;;;;;;;;;;;10.50;99.90;;;;;;5071591;28;19916;-68
2023/04/29 08:06:52;;;;;;;;;;;10.40;99.90;;;;;;5061649;28;19924;-68
2023/04/29 08:09:18;;;;;;;;;;;10.50;99.90;;;;;;5076053;28;19920;-68
2023/04/29 08:11:44;;;;;;;;;;;10.50;99.90;;;;;;5083930;28;20216;-68
2023/04/29 08:14:10;;;;;;;;;;;10.60;99.90;;;;;;5084991;28;19924;-68
2023/04/29 08:16:36;;;;;;;;;;;10.70;99.90;;;;;;5078637;28;19913;-68
2023/04/29 08:19:01;;;;;;;;;;;10.70;99.90;;;;;;5066782;28;19912;-68
2023/04/29 08:21:27;;;;;;;;;;;10.90;99.90;;;;;;5066494;28;19956;-69
2023/04/29 08:23:54;;;;;;;;;;;10.90;99.90;;;;;;5071889;28;19924;-68
2023/04/29 08:26:19;;;;;;;;;;;11.00;99.90;;;;;;5039601;28;20373;-69
2023/04/29 08:28:45;;;;;;;;;;;11.10;99.90;;;;;;5075965;28;19916;-68
2023/04/29 08:31:17;;;;;;;;;;;10.90;99.90;;;;;;5083156;28;19916;-68
2023/04/29 08:33:43;;;;;;;;;;;11.00;99.90;;;;;;5081765;28;19921;-69
2023/04/29 08:36:08;;;;;;;;;;;11.20;99.90;;;;;;5058551;28;20469;-68
2023/04/29 08:38:34;;;;;;;;;;;11.20;99.90;;;;;;5070275;28;19917;-68
2023/04/29 08:41:00;;;;;;;;;;;11.30;99.90;;;;;;5078115;28;19927;-68
2023/04/29 08:43:26;;;;;;;;;;;11.30;99.90;;;;;;5076722;28;20336;-68
2023/04/29 08:45:52;;;;;;;;;;;11.30;99.90;;;;;;5068589;28;19916;-68
2023/04/29 08:48:17;;;;;;;;;;;11.30;99.90;;;;;;5068410;28;19920;-68
2023/04/29 08:50:43;;;;;;;;;;;11.30;99.90;;;;;;5069828;28;19952;-68
2023/04/29 08:53:09;;;;;;;;;;;11.50;99.90;;;;;;5066232;28;19921;-68
2023/04/29 08:55:36;;;;;;;;;;;11.60;99.90;;;;;;5069323;28;19916;-68
2023/04/29 08:58:01;;;;;;;;;;;11.80;99.90;;;;;;5069749;28;19920;-68
2023/04/29 09:00:27;;;;;;;;;;;11.80;99.90;;;;;;5052318;28;19931;-68
2023/04/29 09:02:53;;;;;;;;;;;11.80;99.90;;;;;;5069402;28;19923;-68
2023/04/29 09:05:18;;;;;;;;;;;11.70;99.90;;;;;;5076516;28;20022;-68
2023/04/29 09:07:44;;;;;;;;;;;11.80;99.90;;;;;;5066334;28;19912;-68
2023/04/29 09:10:10;;;;;;;;;;;11.80;99.90;;;;;;5049002;28;20256;-68
2023/04/29 09:12:36;;;;;;;;;;;12.00;99.90;;;;;;5074945;28;20352;-68
2023/04/29 09:15:02;;;;;;;;;;;12.00;99.90;;;;;;5070460;28;19915;-68
2023/04/29 09:17:40;;;;;;;;;;;12.20;99.90;;;;;;5069997;28;20302;-68
2023/04/29 09:20:19;;;;;;;;;;;12.20;99.90;;;;;;5074743;28;20416;-68
2023/04/29 09:22:48;;;;;;;;;;;12.20;99.90;;;;;;5068352;28;19978;-68
2023/04/29 09:25:14;;;;;;;;;;;12.10;99.90;;;;;;5068339;28;19920;-68
2023/04/29 09:27:39;;;;;;;;;;;12.10;99.90;;;;;;5072636;28;19962;-68
2023/04/29 09:30:06;;;;;;;;;;;12.20;99.90;;;;;;5063033;28;20035;-68
2023/04/29 09:32:31;;;;;;;;;;;12.20;99.90;;;;;;5071733;28;20295;-68
2023/04/29 09:34:57;;;;;;;;;;;12.30;99.90;;;;;;5056084;28;19916;-68
2023/04/29 09:37:26;;;;;;;;;;;12.20;99.90;;;;;;5067607;28;19921;-68
2023/04/29 09:39:52;;;;;;;;;;;12.20;99.90;;;;;;5066099;28;20295;-68
2023/04/29 09:42:18;;;;;;;;;;;12.30;99.90;;;;;;5056271;28;20008;-69
2023/04/29 09:44:44;;;;;;;;;;;12.40;99.90;;;;;;5076789;28;19995;-69
2023/04/29 09:47:09;;;;;;;;;;;12.50;99.90;;;;;;5055304;28;19916;-69
2023/04/29 09:49:44;;;;;;;;;;;12.50;99.90;;;;;;5072482;28;20023;-68
2023/04/29 09:52:10;;;;;;;;;;;12.60;99.90;;;;;;5071951;28;20259;-68
2023/04/29 09:54:37;;;;;;;;;;;12.70;99.90;;;;;;5072275;28;20725;-68
2023/04/29 09:57:05;;;;;;;;;;;12.90;99.90;;;;;;5073303;28;19916;-68
2023/04/29 09:59:33;;;;;;;;;;;13.00;99.90;;;;;;5061580;28;19916;-68
2023/04/29 10:01:59;;;;;;;;;;;13.10;99.90;;;;;;5055530;28;20384;-69
2023/04/29 10:04:25;;;;;;;;;;;13.30;99.90;;;;;;5071706;28;20023;-68
2023/04/29 10:06:51;;;;;;;;;;;13.30;99.90;;;;;;5054838;28;19916;-68
2023/04/29 10:09:17;;;;;;;;;;;13.30;99.90;;;;;;5066927;28;19927;-69
2023/04/29 10:11:47;;;;;;;;;;;13.10;99.90;;;;;;5070720;28;19921;-69
2023/04/29 10:14:31;;;;;;;;;;;13.10;99.90;;;;;;5070153;28;19924;-69
2023/04/29 10:17:23;;;;;;;;;;;13.10;99.90;;;;;;5068601;28;19920;-68
2023/04/29 10:20:04;;;;;;;;;;;13.50;99.90;;;;;;5066156;28;19916;-68
2023/04/29 10:22:46;;;;;;;;;;;13.60;99.90;;;;;;5060784;28;19985;-68
2023/04/29 10:25:15;;;;;;;;;;;13.50;99.90;;;;;;5050789;28;20605;-69
2023/04/29 10:27:42;;;;;;;;;;;13.40;99.90;;;;;;5065780;28;19912;-68
2023/04/29 10:30:08;;;;;;;;;;;13.30;99.90;;;;;;5069480;28;19920;-70
2023/04/29 10:32:34;;;;;;;;;;;13.20;99.90;;;;;;5066254;28;20415;-69
2023/04/29 10:34:59;;;;;;;;;;;13.30;99.90;;;;;;5054395;28;19916;-70
2023/04/29 10:37:25;;;;;;;;;;;13.40;99.90;;;;;;5075667;28;19916;-71
2023/04/29 10:40:03;;;;;;;;;;;13.30;99.90;;;;;;5059740;28;20172;-70
2023/04/29 10:42:42;;;;;;;;;;;13.10;99.90;;;;;;5065244;28;20287;-70
2023/04/29 10:45:30;;;;;;;;;;;13.00;99.90;;;;;;5062922;28;20264;-70
2023/04/29 10:48:04;;;;;;;;;;;12.90;99.90;;;;;;5079663;28;19916;-70
2023/04/29 10:50:42;;;;;;;;;;;12.90;99.90;;;;;;5085267;28;19923;-70
2023/04/29 10:53:07;;;;;;;;;;;12.80;99.90;;;;;;5081521;28;19964;-70
2023/04/29 10:55:37;;;;;;;;;;;12.90;99.90;;;;;;5063382;28;19970;-73
2023/04/29 10:58:03;;;;;;;;;;;12.90;99.90;;;;;;5074733;28;19916;-71
2023/04/29 11:00:33;;;;;;;;;;;13.00;99.90;;;;;;5068864;28;19916;-71
2023/04/29 11:03:00;;;;;;;;;;;13.00;99.90;;;;;;5085991;28;20320;-72
2023/04/29 11:05:30;;;;;;;;;;;13.00;99.90;;;;;;5092638;28;19958;-71
2023/04/29 11:08:12;;;;;;;;;;;13.00;99.90;;;;;;5073338;28;19916;-70
2023/04/29 11:10:41;;;;;;;;;;;13.10;99.90;;;;;;5068904;28;20325;-70
2023/04/29 11:13:25;;;;;;;;;;;13.20;99.90;;;;;;5076604;28;19924;-71
2023/04/29 11:16:04;;;;;;;;;;;13.20;99.90;;;;;;5079167;28;19916;-71
2023/04/29 11:18:30;;;;;;;;;;;13.30;99.90;;;;;;5077600;28;20260;-71
2023/04/29 11:21:04;;;;;;;;;;;13.30;99.90;;;;;;5083704;28;19999;-71
2023/04/29 11:23:32;;;;;;;;;;;13.30;99.90;;;;;;5066708;28;19916;-71
2023/04/29 11:25:58;;;;;;;;;;;13.30;99.90;;;;;;5080118;28;19925;-70
2023/04/29 11:28:24;;;;;;;;;;;13.40;99.90;;;;;;5079607;28;19916;-72
2023/04/29 11:30:50;;;;;;;;;;;13.50;99.90;;;;;;5063395;28;19916;-70
2023/04/29 11:33:16;;;;;;;;;;;14.00;99.90;;;;;;5038984;28;19916;-71
2023/04/29 11:35:41;;;;;;;;;;;14.30;99.90;;;;;;5060639;28;19927;-71
2023/04/29 11:38:08;;;;;;;;;;;14.10;99.90;;;;;;5057883;28;20036;-71
2023/04/29 11:40:33;;;;;;;;;;;14.00;99.90;;;;;;5078827;28;19915;-74
2023/04/29 11:42:59;;;;;;;;;;;14.30;99.90;;;;;;5084575;28;19927;-74
2023/04/29 11:45:26;;;;;;;;;;;14.50;99.90;;;;;;5081735;28;19943;-74
2023/04/29 11:47:53;;;;;;;;;;;14.50;99.90;;;;;;5084041;28;19916;-74
2023/04/29 11:50:18;;;;;;;;;;;14.60;99.90;;;;;;5091506;28;19916;-74
2023/04/29 11:52:48;;;;;;;;;;;14.70;99.90;;;;;;5076074;28;19923;-74
2023/04/29 11:55:14;;;;;;;;;;;14.80;99.90;;;;;;5090629;28;19966;-75
2023/04/29 11:57:40;;;;;;;;;;;14.90;99.90;;;;;;5062306;28;20248;-75
2023/04/29 12:00:11;;;;;;;;;;;15.00;99.90;;;;;;5067441;28;19924;-75
2023/04/29 12:02:37;;;;;;;;;;;15.10;99.90;;;;;;5069814;28;19939;-74
2023/04/29 12:05:06;;;;;;;;;;;15.10;99.90;;;;;;5076009;28;20320;-74
2023/04/29 12:07:32;;;;;;;;;;;15.20;99.90;;;;;;5057689;28;19970;-75
2023/04/29 12:09:58;;;;;;;;;;;15.10;99.90;;;;;;5074317;28;19920;-74
2023/04/29 12:12:26;;;;;;;;;;;15.10;99.90;;;;;;5089610;28;19960;-74
2023/04/29 12:14:52;;;;;;;;;;;15.10;99.90;;;;;;5071592;28;19981;-74
2023/04/29 12:17:17;;;;;;;;;;;15.10;99.90;;;;;;5075031;28;20007;-75
2023/04/29 12:19:44;;;;;;;;;;;15.10;99.90;;;;;;5082402;28;19920;-74
2023/04/29 12:22:10;;;;;;;;;;;15.20;99.90;;;;;;5061815;28;20010;-74
2023/04/29 12:24:37;;;;;;;;;;;15.20;99.90;;;;;;5070134;28;19917;-74
2023/04/29 12:27:03;;;;;;;;;;;15.20;99.90;;;;;;5078671;28;19916;-75
2023/04/29 12:29:30;;;;;;;;;;;15.20;99.90;;;;;;5065747;28;20003;-75
2023/04/29 12:31:56;;;;;;;;;;;15.20;99.90;;;;;;5063837;28;20640;-74
2023/04/29 12:34:25;;;;;;;;;;;15.20;99.90;;;;;;5082075;28;19920;-74
2023/04/29 12:36:53;;;;;;;;;;;15.20;99.90;;;;;;5080444;28;20597;-74
2023/04/29 12:39:19;;;;;;;;;;;15.10;99.90;;;;;;5076928;28;19923;-74
2023/04/29 12:41:45;;;;;;;;;;;15.10;99.90;;;;;;5089372;28;19915;-74
2023/04/29 12:44:10;;;;;;;;;;;15.20;99.90;;;;;;5056143;28;19913;-75
2023/04/29 12:46:37;;;;;;;;;;;15.20;99.90;;;;;;5065769;28;20271;-75
2023/04/29 12:49:03;;;;;;;;;;;15.30;99.90;;;;;;5057077;28;20325;-74
2023/04/29 12:51:32;;;;;;;;;;;15.30;99.90;;;;;;5087249;28;19920;-70
2023/04/29 12:53:58;;;;;;;;;;;14.90;99.90;;;;;;5073071;28;20003;-70
2023/04/29 12:56:24;;;;;;;;;;;14.70;99.90;;;;;;5087243;28;19928;-70
2023/04/29 12:58:49;;;;;;;;;;;14.70;99.90;;;;;;5095430;28;19916;-71
2023/04/29 13:01:15;;;;;;;;;;;14.80;99.90;;;;;;5058146;28;19928;-71
2023/04/29 13:03:41;;;;;;;;;;;14.70;99.90;;;;;;5077707;28;19985;-70
2023/04/29 13:06:07;;;;;;;;;;;14.70;99.90;;;;;;5050470;28;20252;-70
2023/04/29 13:08:33;;;;;;;;;;;14.70;99.90;;;;;;5084397;28;19912;-71
2023/04/29 13:10:58;;;;;;;;;;;14.60;99.90;;;;;;5081179;28;19922;-70
2023/04/29 13:13:24;;;;;;;;;;;14.60;99.90;;;;;;5077212;28;19920;-71
2023/04/29 13:15:50;;;;;;;;;;;14.60;99.90;;;;;;5066086;28;19912;-71
2023/04/29 13:18:15;;;;;;;;;;;14.50;99.90;;;;;;5078991;28;19923;-70
2023/04/29 13:20:41;;;;;;;;;;;14.60;99.90;;;;;;5053265;28;19942;-70
2023/04/29 13:23:07;;;;;;;;;;;14.60;99.60;;;;;;5081296;28;20313;-70
2023/04/29 13:25:32;;;;;;;;;;;14.60;99.40;;;;;;5089056;28;20068;-71
2023/04/29 13:27:58;;;;;;;;;;;14.50;99.60;;;;;;5082122;28;20608;-70
2023/04/29 13:30:23;;;;;;;;;;;14.50;99.60;;;;;;5082284;28;19969;-71
2023/04/29 13:32:49;;;;;;;;;;;14.30;99.90;;;;;;5059185;28;19923;-70
2023/04/29 13:35:17;;;;;;;;;;;14.30;99.90;;;;;;5058333;28;19927;-70
2023/04/29 13:37:43;;;;;;;;;;;14.30;99.90;;;;;;5070017;28;19917;-71
2023/04/29 13:40:10;;;;;;;;;;;14.50;99.90;;;;;;5094089;28;19955;-70
2023/04/29 13:42:36;;;;;;;;;;;14.40;99.90;;;;;;5083132;28;19927;-70
2023/04/29 13:45:02;;;;;;;;;;;14.30;99.90;;;;;;5047330;28;19916;-68
2023/04/29 13:47:28;;;;;;;;;;;14.40;99.90;;;;;;5071626;28;19920;-68
2023/04/29 13:49:54;;;;;;;;;;;14.50;99.90;;;;;;5079870;28;19917;-68
2023/04/29 13:52:19;;;;;;;;;;;14.60;99.90;;;;;;5077277;28;19916;-69
2023/04/29 13:54:45;;;;;;;;;;;14.60;99.80;;;;;;5082263;28;19920;-68
2023/04/29 13:57:11;;;;;;;;;;;14.60;99.90;;;;;;5084274;28;19916;-68
2023/04/29 13:59:36;;;;;;;;;;;14.50;99.90;;;;;;5071538;28;19916;-68
2023/04/29 14:02:05;;;;;;;;;;;14.50;99.90;;;;;;5087939;28;20618;-68
2023/04/29 14:04:31;;;;;;;;;;;14.50;99.10;;;;;;5078027;28;19924;-68
2023/04/29 14:06:56;;;;;;;;;;;14.50;99.70;;;;;;5076413;28;19921;-68
2023/04/29 14:09:22;;;;;;;;;;;14.50;99.10;;;;;;5079966;28;20309;-68
2023/04/29 14:11:51;;;;;;;;;;;14.40;99.20;;;;;;5085389;28;19921;-68
2023/04/29 14:14:17;;;;;;;;;;;14.40;99.10;;;;;;5055389;28;19924;-68